Time;durP1;ratioP1;P1;durP2;ratioP2;P2;SDS_P1;SDS_P2;PMS_P1;PMS_P2;Temp;Humidity;BMP_temperature;BMP_pressure;BME280_temperature;BME280_humidity;BME280_pressure;Samples;Min_cycle;Max_cycle;Signal;HPM_P1;HPM_P2
2022/01/19 00:01:37;;;;;;;8.50;5.03;;;15.30;52.00;;;;;;5086326;28;20056;-69
2022/01/19 00:04:03;;;;;;;8.57;5.97;;;15.30;52.00;;;;;;5086777;28;20067;-67
2022/01/19 00:06:29;;;;;;;8.60;5.68;;;15.30;52.00;;;;;;5104201;28;20082;-67
2022/01/19 00:08:55;;;;;;;7.85;5.55;;;15.30;52.00;;;;;;5086956;28;20475;-67
2022/01/19 00:11:21;;;;;;;7.57;5.22;;;15.30;52.00;;;;;;5086853;28;20072;-69
2022/01/19 00:13:50;;;;;;;9.73;6.50;;;15.30;52.00;;;;;;5076054;28;20036;-67
2022/01/19 00:16:16;;;;;;;8.15;5.47;;;15.30;52.00;;;;;;5072819;28;20089;-67
2022/01/19 00:18:42;;;;;;;8.38;5.53;;;15.30;52.00;;;;;;5071909;28;20045;-68
2022/01/19 00:21:08;;;;;;;8.43;5.80;;;15.30;52.00;;;;;;5073947;28;20533;-68
2022/01/19 00:23:33;;;;;;;8.35;6.10;;;15.30;52.00;;;;;;5074434;28;20464;-69
2022/01/19 00:25:59;;;;;;;8.95;5.50;;;15.30;52.00;;;;;;5074415;28;20041;-68
2022/01/19 00:28:25;;;;;;;7.88;4.90;;;15.20;52.00;;;;;;5073084;28;20028;-70
2022/01/19 00:30:52;;;;;;;7.07;4.93;;;15.30;52.00;;;;;;5074347;28;20120;-69
2022/01/19 00:33:19;;;;;;;8.43;5.65;;;15.20;51.90;;;;;;5072914;28;20052;-68
2022/01/19 00:35:45;;;;;;;9.32;6.20;;;15.20;51.90;;;;;;5072992;28;20059;-67
2022/01/19 00:38:11;;;;;;;7.68;5.40;;;15.20;51.90;;;;;;5072895;28;20044;-67
2022/01/19 00:40:39;;;;;;;7.97;5.80;;;15.20;51.90;;;;;;5072868;28;20048;-67
2022/01/19 00:43:05;;;;;;;8.57;5.25;;;15.20;51.90;;;;;;5072822;28;20047;-67
2022/01/19 00:45:31;;;;;;;7.70;5.43;;;15.20;51.90;;;;;;5072814;28;20115;-68
2022/01/19 00:47:57;;;;;;;6.32;5.03;;;15.20;51.90;;;;;;5072731;28;20441;-68
2022/01/19 00:50:26;;;;;;;8.18;5.32;;;15.20;51.90;;;;;;5072735;28;20036;-67
2022/01/19 00:52:53;;;;;;;6.07;5.03;;;15.20;51.90;;;;;;5074363;28;20448;-68
2022/01/19 00:55:23;;;;;;;9.52;5.45;;;15.20;51.90;;;;;;5072820;28;20388;-67
2022/01/19 00:57:50;;;;;;;9.50;5.90;;;15.20;51.90;;;;;;5072844;28;20122;-67
2022/01/19 01:00:19;;;;;;;10.88;6.28;;;15.20;51.90;;;;;;5072657;28;20032;-68
2022/01/19 01:02:46;;;;;;;10.90;7.68;;;15.10;51.80;;;;;;5071939;28;20561;-69
2022/01/19 01:05:12;;;;;;;8.90;5.50;;;15.10;51.90;;;;;;5072302;28;20036;-67
2022/01/19 01:07:38;;;;;;;9.63;5.85;;;15.10;51.80;;;;;;5072659;28;20043;-69
2022/01/19 01:10:07;;;;;;;11.45;5.55;;;15.10;51.90;;;;;;5073425;28;20040;-68
2022/01/19 01:15:27;;;;;;;10.23;6.05;;;15.10;51.90;;;;;;5073155;28;20048;-67
2022/01/19 01:18:24;;;;;;;7.43;5.57;;;15.10;51.90;;;;;;5072149;28;20041;-67
2022/01/19 01:20:39;;;;;;;7.25;5.38;;;15.10;52.00;;;;;;5073092;28;20048;-67
2022/01/19 01:23:07;;;;;;;8.57;4.90;;;15.10;51.90;;;;;;5072175;28;20120;-69
2022/01/19 01:25:33;;;;;;;7.15;4.57;;;15.30;51.90;;;;;;5071277;28;20040;-67
2022/01/19 01:27:59;;;;;;;6.93;3.85;;;15.40;51.60;;;;;;5072434;28;20392;-68
2022/01/19 01:30:25;;;;;;;7.13;4.25;;;15.60;51.30;;;;;;5072084;28;20093;-68
2022/01/19 01:32:50;;;;;;;8.50;4.10;;;15.90;50.90;;;;;;5071839;28;20510;-69
2022/01/19 01:35:16;;;;;;;6.68;4.10;;;16.20;50.40;;;;;;5073036;28;20033;-67
2022/01/19 01:37:42;;;;;;;6.35;3.88;;;16.50;49.90;;;;;;5071721;28;20447;-68
2022/01/19 01:40:12;;;;;;;8.30;3.75;;;16.80;49.30;;;;;;5071594;28;20091;-67
2022/01/19 01:42:38;;;;;;;6.85;3.40;;;17.10;48.70;;;;;;5072904;28;20431;-67
2022/01/19 01:45:09;;;;;;;4.70;2.95;;;17.30;48.20;;;;;;5071535;28;20041;-67
2022/01/19 01:47:44;;;;;;;5.68;3.85;;;17.60;47.70;;;;;;5071585;28;20072;-67
2022/01/19 01:55:38;;;;;;;5.38;3.50;;;18.20;46.50;;;;;;5128945;27;20428;-67
2022/01/19 01:58:03;;;;;;;6.25;3.55;;;18.30;46.20;;;;;;5130103;28;20042;-69
2022/01/19 02:00:29;;;;;;;6.57;3.78;;;18.40;46.10;;;;;;5128918;28;20047;-67
2022/01/19 02:02:55;;;;;;;6.20;3.03;;;18.40;46.00;;;;;;5128798;28;20043;-67
2022/01/19 02:05:23;;;;;;;5.38;3.25;;;18.40;45.90;;;;;;5128734;28;20079;-68
2022/01/19 02:08:04;;;;;;;6.53;3.05;;;18.40;45.80;;;;;;5129096;28;20051;-67
2022/01/19 02:16:19;;;;;;;6.68;3.50;;;18.30;45.90;;;;;;5131965;27;20050;-68
2022/01/19 02:24:19;;;;;;;6.68;3.35;;;18.00;46.10;;;;;;5130249;27;20459;-68
2022/01/19 02:40:33;;;;;;;4.95;3.78;;;17.50;46.80;;;;;;5128974;27;20105;-68
2022/01/19 02:51:13;;;;;;;6.18;3.40;;;17.30;47.10;;;;;;5153078;27;20073;-67
2022/01/19 02:53:39;;;;;;;5.15;3.40;;;17.30;47.10;;;;;;5153103;27;20073;-67
2022/01/19 02:56:11;;;;;;;5.45;3.60;;;17.30;47.10;;;;;;5153398;27;20049;-67
2022/01/19 02:58:45;;;;;;;3.83;3.22;;;17.40;47.10;;;;;;5153243;27;20430;-67
2022/01/19 03:09:40;;;;;;;5.70;3.60;;;17.50;46.90;;;;;;5130268;27;20354;-68
2022/01/19 03:12:06;;;;;;;5.05;3.20;;;17.50;46.80;;;;;;5128913;28;20051;-68
2022/01/19 03:14:31;;;;;;;5.65;3.15;;;17.60;46.80;;;;;;5128865;28;20096;-68
2022/01/19 03:17:07;;;;;;;4.63;3.42;;;17.60;46.80;;;;;;5129149;28;20051;-68
2022/01/19 03:19:34;;;;;;;5.13;3.88;;;17.60;46.60;;;;;;5130318;27;20395;-67
2022/01/19 03:22:00;;;;;;;4.65;3.17;;;17.60;46.60;;;;;;5128779;28;20039;-67
2022/01/19 03:24:37;;;;;;;3.80;2.90;;;17.60;46.60;;;;;;5128746;28;20047;-67
2022/01/19 03:27:03;;;;;;;4.57;3.13;;;17.60;46.60;;;;;;5129925;27;20039;-68
2022/01/19 03:29:32;;;;;;;4.22;2.90;;;17.60;46.60;;;;;;5128586;28;20364;-68
2022/01/19 03:31:57;;;;;;;3.88;2.97;;;17.60;46.60;;;;;;5128565;28;20055;-67
2022/01/19 03:34:23;;;;;;;4.50;2.35;;;17.50;46.60;;;;;;5128539;28;20050;-67
2022/01/19 03:36:49;;;;;;;4.47;3.08;;;17.50;46.60;;;;;;5130240;27;20050;-69
2022/01/19 03:39:14;;;;;;;3.47;2.65;;;17.40;46.50;;;;;;5129738;28;20036;-68
2022/01/19 03:41:40;;;;;;;4.43;2.88;;;17.40;46.60;;;;;;5128460;28;20043;-67
2022/01/19 03:44:06;;;;;;;3.60;2.00;;;17.40;46.60;;;;;;5128319;28;20047;-67
2022/01/19 03:46:34;;;;;;;3.28;2.53;;;17.30;46.60;;;;;;5129652;27;20050;-67
2022/01/19 03:49:11;;;;;;;3.88;2.80;;;17.30;46.70;;;;;;5128364;28;20043;-67
2022/01/19 03:51:37;;;;;;;3.83;2.47;;;17.30;46.70;;;;;;5128553;28;20047;-67
2022/01/19 03:54:03;;;;;;;3.67;2.45;;;17.30;46.70;;;;;;5128159;28;20039;-67
2022/01/19 03:56:29;;;;;;;2.67;2.03;;;17.20;46.70;;;;;;5128314;28;20043;-68
2022/01/19 03:58:55;;;;;;;4.35;2.25;;;17.20;46.70;;;;;;5129505;28;20089;-67
2022/01/19 04:01:20;;;;;;;3.33;2.40;;;17.20;46.70;;;;;;5128291;28;20073;-67
2022/01/19 04:04:31;;;;;;;4.05;2.22;;;17.10;46.70;;;;;;5128504;28;20377;-68
2022/01/19 04:06:53;;;;;;;2.30;1.33;;;17.10;47.50;;;;;;5127752;28;20055;-67
2022/01/19 04:09:17;;;;;;;3.30;2.00;;;17.10;46.80;;;;;;5127339;28;20401;-68
2022/01/19 04:11:43;;;;;;;2.40;2.03;;;17.10;46.80;;;;;;5127979;28;20130;-68
2022/01/19 04:16:52;;;;;;;2.67;1.58;;;17.10;46.70;;;;;;5130371;27;20885;-68
2022/01/19 04:21:59;;;;;;;2.40;1.63;;;17.10;46.70;;;;;;5152635;27;1167529;-67
2022/01/19 04:24:25;;;;;;;2.63;1.92;;;17.10;46.70;;;;;;5153319;27;20279;-67
2022/01/19 04:29:38;;;;;;;2.55;2.00;;;17.10;46.70;;;;;;5153105;27;20046;-68
2022/01/19 04:32:11;;;;;;;2.80;1.73;;;17.10;46.60;;;;;;5153048;27;20049;-67
2022/01/19 04:34:38;;;;;;;2.10;1.63;;;17.10;46.60;;;;;;5152976;27;20046;-67
2022/01/19 04:46:00;;;;;;;3.13;1.83;;;17.10;46.50;;;;;;5130090;28;20438;-68
2022/01/19 05:13:28;;;;;;;2.13;1.58;;;17.00;46.20;;;;;;5130283;27;20785;-68
2022/01/19 05:15:57;;;;;;;2.42;1.20;;;16.90;46.20;;;;;;5129176;28;20039;-67
2022/01/19 05:18:23;;;;;;;1.67;1.13;;;17.00;46.20;;;;;;5128755;28;20482;-69
2022/01/19 05:20:49;;;;;;;1.92;1.33;;;17.00;46.20;;;;;;5129141;28;20036;-70
2022/01/19 05:23:16;;;;;;;1.80;1.20;;;17.00;46.20;;;;;;5128795;28;20398;-69
2022/01/19 05:25:44;;;;;;;1.70;1.23;;;17.00;46.10;;;;;;5130082;27;20081;-68
2022/01/19 05:28:10;;;;;;;2.30;1.17;;;17.00;46.10;;;;;;5128940;28;20055;-69
2022/01/19 05:30:36;;;;;;;2.92;1.63;;;16.90;46.00;;;;;;5128880;28;20562;-69
2022/01/19 05:33:01;;;;;;;1.98;1.52;;;17.00;46.10;;;;;;5129707;28;20131;-70
2022/01/19 05:35:27;;;;;;;1.95;1.52;;;17.00;46.10;;;;;;5129911;28;20035;-70
2022/01/19 05:37:54;;;;;;;2.17;1.40;;;17.00;46.10;;;;;;5128822;28;20063;-69
2022/01/19 05:40:20;;;;;;;1.85;1.38;;;17.00;46.10;;;;;;5128927;28;20344;-68
2022/01/19 05:42:48;;;;;;;1.77;1.40;;;16.90;46.00;;;;;;5128737;28;20394;-68
2022/01/19 05:45:14;;;;;;;2.22;1.52;;;16.90;46.10;;;;;;5128366;28;20110;-69
2022/01/19 05:47:40;;;;;;;2.20;1.55;;;16.90;46.00;;;;;;5129507;27;20122;-70
2022/01/19 05:50:06;;;;;;;2.92;1.52;;;16.90;46.00;;;;;;5128338;28;20062;-69
2022/01/19 05:52:31;;;;;;;2.47;1.65;;;16.90;46.00;;;;;;5128342;28;20040;-67
2022/01/19 05:54:57;;;;;;;2.05;1.58;;;16.90;46.00;;;;;;5128500;28;20035;-69
2022/01/19 05:57:23;;;;;;;1.88;1.67;;;16.90;46.00;;;;;;5128133;28;20419;-68
2022/01/19 05:59:48;;;;;;;2.05;1.42;;;16.90;46.80;;;;;;5128346;28;20039;-68
2022/01/19 06:02:16;;;;;;;3.05;1.88;;;16.80;46.00;;;;;;5128440;28;20043;-68
2022/01/19 06:04:42;;;;;;;3.30;1.98;;;16.80;46.00;;;;;;5127986;28;20082;-69
2022/01/19 06:07:08;;;;;;;2.17;1.63;;;16.80;46.00;;;;;;5128060;28;20047;-68
2022/01/19 06:09:37;;;;;;;2.30;1.85;;;16.80;46.00;;;;;;5127946;28;20046;-70
2022/01/19 06:12:05;;;;;;;2.88;2.05;;;16.80;46.00;;;;;;5127719;28;20065;-67
2022/01/19 06:14:32;;;;;;;2.20;1.70;;;16.80;46.00;;;;;;5127752;28;20046;-68
2022/01/19 06:16:59;;;;;;;3.65;2.13;;;16.80;46.10;;;;;;5127811;28;20115;-69
2022/01/19 06:19:30;;;;;;;2.20;2.00;;;16.80;46.10;;;;;;5127711;28;20043;-70
2022/01/19 06:21:56;;;;;;;1.77;1.40;;;16.90;46.20;;;;;;5127702;28;20071;-69
2022/01/19 06:24:22;;;;;;;2.97;2.28;;;16.70;46.10;;;;;;5115604;28;20094;-68
2022/01/19 06:26:48;;;;;;;2.13;1.75;;;16.70;46.10;;;;;;5115373;28;20495;-69
2022/01/19 06:29:17;;;;;;;2.70;1.92;;;16.70;46.10;;;;;;5113786;28;20130;-68
2022/01/19 06:31:42;;;;;;;3.83;2.65;;;16.70;46.10;;;;;;5114031;28;20077;-68
2022/01/19 06:34:08;;;;;;;2.97;2.30;;;16.70;46.20;;;;;;5113928;28;20784;-70
2022/01/19 06:36:34;;;;;;;3.35;2.22;;;16.70;46.20;;;;;;5114040;28;20467;-69
2022/01/19 06:39:00;;;;;;;2.45;1.83;;;16.70;46.20;;;;;;5111692;28;20047;-67
2022/01/19 06:41:25;;;;;;;2.80;2.30;;;16.70;46.20;;;;;;5109805;28;20070;-68
2022/01/19 06:43:51;;;;;;;3.05;2.42;;;16.70;46.20;;;;;;5111909;28;20046;-67
2022/01/19 06:46:17;;;;;;;2.72;2.28;;;16.70;46.10;;;;;;5108808;28;20039;-70
2022/01/19 06:48:43;;;;;;;2.55;2.25;;;16.70;46.20;;;;;;5089308;28;20032;-68
2022/01/19 06:51:08;;;;;;;2.97;2.10;;;16.70;46.50;;;;;;5102568;28;20403;-68
2022/01/19 06:53:34;;;;;;;3.25;1.80;;;16.70;47.00;;;;;;5103045;28;20119;-68
2022/01/19 06:56:00;;;;;;;5.57;4.30;;;16.70;47.20;;;;;;5104178;28;20363;-68
2022/01/19 06:58:27;;;;;;;8.27;6.50;;;16.70;46.80;;;;;;5107033;28;20035;-70
2022/01/19 07:00:56;;;;;;;9.32;7.05;;;16.70;45.90;;;;;;5107122;28;20124;-68
2022/01/19 07:03:22;;;;;;;8.80;7.50;;;16.70;45.00;;;;;;5107370;28;20043;-71
2022/01/19 07:05:51;;;;;;;10.48;6.80;;;16.60;44.70;;;;;;5106309;28;20126;-69
2022/01/19 07:08:17;;;;;;;7.88;6.30;;;16.60;44.60;;;;;;5106521;28;20031;-69
2022/01/19 07:10:43;;;;;;;9.05;5.90;;;16.70;44.40;;;;;;5106656;28;20042;-69
2022/01/19 07:13:09;;;;;;;9.23;6.50;;;16.80;44.20;;;;;;5106042;28;20050;-69
2022/01/19 07:15:36;;;;;;;7.45;6.30;;;16.90;43.80;;;;;;5103980;28;20054;-69
2022/01/19 07:18:03;;;;;;;12.75;7.65;;;17.00;43.40;;;;;;5096458;28;20039;-67
2022/01/19 07:20:28;;;;;;;6.70;4.93;;;17.20;43.10;;;;;;5093551;28;20398;-70
2022/01/19 07:22:56;;;;;;;9.27;6.80;;;17.30;43.00;;;;;;5094240;28;20481;-72
2022/01/19 07:25:22;;;;;;;10.05;7.47;;;17.50;42.60;;;;;;5093894;28;20042;-74
2022/01/19 07:27:48;;;;;;;10.93;6.70;;;17.70;41.90;;;;;;5092725;28;20123;-74
2022/01/19 07:30:13;;;;;;;13.23;8.45;;;17.80;41.50;;;;;;5098027;28;20108;-74
2022/01/19 07:32:39;;;;;;;9.52;7.60;;;17.80;41.10;;;;;;5093661;28;20032;-75
2022/01/19 07:35:09;;;;;;;13.20;8.90;;;17.90;41.00;;;;;;5096672;28;20731;-72
2022/01/19 07:37:35;;;;;;;8.05;6.40;;;17.90;40.80;;;;;;5103644;28;20036;-71
2022/01/19 07:40:01;;;;;;;6.35;4.60;;;18.00;40.90;;;;;;5095675;28;20040;-69
2022/01/19 07:42:27;;;;;;;5.22;3.90;;;18.10;41.00;;;;;;5095697;27;20031;-70
2022/01/19 07:44:53;;;;;;;7.35;4.30;;;18.10;40.90;;;;;;5095768;28;20550;-69
2022/01/19 07:47:20;;;;;;;6.13;3.58;;;18.20;41.00;;;;;;5096298;28;20075;-69
2022/01/19 07:49:46;;;;;;;7.03;3.83;;;18.20;40.90;;;;;;5090975;28;20698;-71
2022/01/19 07:52:14;;;;;;;4.28;3.15;;;18.30;41.00;;;;;;5094187;28;20198;-69
2022/01/19 07:54:40;;;;;;;5.38;3.53;;;18.20;41.00;;;;;;5093479;28;20562;-71
2022/01/19 07:57:06;;;;;;;5.47;3.10;;;18.20;41.10;;;;;;5094629;28;20127;-69
2022/01/19 07:59:31;;;;;;;4.88;3.25;;;18.20;41.20;;;;;;5094094;28;20744;-71
2022/01/19 08:01:58;;;;;;;4.47;3.47;;;18.10;41.30;;;;;;5113032;27;20061;-72
2022/01/19 08:04:24;;;;;;;5.03;3.22;;;18.00;41.40;;;;;;5089294;28;20043;-72
2022/01/19 08:06:54;;;;;;;3.55;2.55;;;18.00;41.50;;;;;;5097378;28;20047;-72
2022/01/19 08:09:25;;;;;;;5.40;3.22;;;17.90;41.60;;;;;;5089731;28;20421;-68
2022/01/19 08:11:51;;;;;;;5.20;2.97;;;17.80;41.80;;;;;;5092469;28;20170;-71
2022/01/19 08:14:17;;;;;;;3.80;3.35;;;17.70;42.00;;;;;;5101413;27;20043;-70
2022/01/19 08:16:43;;;;;;;3.70;2.63;;;17.70;42.20;;;;;;5086445;28;20036;-71
2022/01/19 08:19:09;;;;;;;3.72;2.60;;;17.50;42.40;;;;;;5088406;28;20051;-69
2022/01/19 08:21:34;;;;;;;4.20;2.72;;;17.30;42.60;;;;;;5090815;28;20039;-73
2022/01/19 08:24:00;;;;;;;3.58;2.60;;;17.30;43.50;;;;;;5089523;27;20042;-70
2022/01/19 08:26:26;;;;;;;4.60;2.10;;;17.20;44.50;;;;;;5089936;28;20267;-69
2022/01/19 08:28:52;;;;;;;5.75;2.47;;;17.10;45.00;;;;;;5088553;28;20040;-72
2022/01/19 08:31:17;;;;;;;5.75;2.67;;;17.00;45.50;;;;;;5104524;27;20036;-69
2022/01/19 08:33:43;;;;;;;4.32;2.30;;;17.00;46.00;;;;;;5103149;27;20649;-70
2022/01/19 08:36:09;;;;;;;2.88;2.30;;;17.00;46.30;;;;;;5091175;28;20459;-69
2022/01/19 08:38:35;;;;;;;4.78;3.00;;;16.90;46.20;;;;;;5087240;28;20045;-73
2022/01/19 08:41:01;;;;;;;4.80;2.28;;;16.90;46.40;;;;;;5092573;28;20050;-68
2022/01/19 08:43:27;;;;;;;3.92;2.60;;;16.90;46.50;;;;;;5088833;28;20031;-73
2022/01/19 08:45:53;;;;;;;3.53;2.25;;;16.90;46.60;;;;;;5090863;28;20051;-70
2022/01/19 08:48:19;;;;;;;5.38;3.53;;;16.90;46.80;;;;;;5089434;27;20052;-70
2022/01/19 08:50:45;;;;;;;3.22;2.10;;;16.90;46.80;;;;;;5092957;28;20482;-71
2022/01/19 08:53:14;;;;;;;2.60;2.00;;;17.00;46.90;;;;;;5094453;28;20062;-69
2022/01/19 08:55:40;;;;;;;2.33;1.67;;;17.00;47.70;;;;;;5088375;28;20040;-71
2022/01/19 08:58:07;;;;;;;4.72;1.88;;;17.00;47.00;;;;;;5092477;28;20035;-71
2022/01/19 09:00:33;;;;;;;3.13;2.47;;;17.00;47.10;;;;;;5087735;28;20020;-68
2022/01/19 09:02:59;;;;;;;8.68;2.45;;;17.00;47.10;;;;;;5086208;28;20039;-70
2022/01/19 09:05:24;;;;;;;4.60;2.03;;;17.00;47.30;;;;;;5087154;28;20515;-70
2022/01/19 09:07:51;;;;;;;4.50;1.65;;;17.00;47.50;;;;;;5083957;28;20040;-70
2022/01/19 09:10:17;;;;;;;3.83;2.10;;;17.00;47.80;;;;;;5088195;28;20047;-71
2022/01/19 09:12:43;;;;;;;4.80;1.80;;;17.00;48.10;;;;;;5088860;28;20077;-71
2022/01/19 09:15:10;;;;;;;3.45;1.67;;;17.00;48.30;;;;;;5087268;28;20121;-71
2022/01/19 09:17:37;;;;;;;2.20;1.58;;;17.00;48.40;;;;;;5085935;28;20430;-71
2022/01/19 09:20:05;;;;;;;1.92;1.42;;;17.00;48.40;;;;;;5090166;28;20028;-70
2022/01/19 09:22:34;;;;;;;8.35;3.42;;;16.90;48.50;;;;;;5094992;28;20044;-71
2022/01/19 09:25:01;;;;;;;15.18;5.38;;;17.00;48.50;;;;;;5106171;28;20047;-71
2022/01/19 09:27:26;;;;;;;10.15;5.90;;;16.90;48.20;;;;;;5088146;28;20237;-71
2022/01/19 09:29:52;;;;;;;10.25;7.03;;;16.90;47.60;;;;;;5090445;28;20497;-70
2022/01/19 09:32:18;;;;;;;11.13;5.63;;;16.90;47.00;;;;;;5091499;28;20422;-70
2022/01/19 09:34:49;;;;;;;12.40;6.50;;;16.80;46.80;;;;;;5095030;28;20031;-69
2022/01/19 09:37:17;;;;;;;;;;;16.80;46.80;;;;;;5105871;28;20044;-69
2022/01/19 09:39:43;;;;;;;9.68;6.55;;;16.80;46.60;;;;;;5090748;28;19916;-70
2022/01/19 09:42:09;;;;;;;13.00;6.93;;;16.80;46.70;;;;;;5091057;28;20075;-73
2022/01/19 09:44:35;;;;;;;9.40;5.78;;;16.80;46.50;;;;;;5087182;28;20792;-71
2022/01/19 09:47:04;;;;;;;8.02;5.03;;;16.80;46.40;;;;;;5089926;28;20576;-70
2022/01/19 09:49:30;;;;;;;7.32;4.07;;;16.80;46.50;;;;;;5089375;28;20075;-71
2022/01/19 09:51:56;;;;;;;6.40;3.97;;;16.80;46.50;;;;;;5090267;28;20059;-70
2022/01/19 09:54:25;;;;;;;7.60;3.47;;;16.90;46.50;;;;;;5088180;28;20569;-71
2022/01/19 09:56:55;;;;;;;5.88;3.78;;;16.90;46.40;;;;;;5088120;28;20530;-75
2022/01/19 09:59:22;;;;;;;5.72;2.97;;;17.00;46.40;;;;;;5107803;27;20048;-71
2022/01/19 10:01:50;;;;;;;11.25;9.35;;;17.10;46.30;;;;;;5092319;27;20044;-71
2022/01/19 10:04:21;;;;;;;12.45;8.20;;;17.10;45.60;;;;;;5088415;28;20097;-69
2022/01/19 10:06:47;;;;;;;11.40;8.25;;;17.20;45.10;;;;;;5087932;28;20602;-71
2022/01/19 10:09:22;;;;;;;8.77;6.10;;;17.10;45.00;;;;;;5091120;27;20028;-68
2022/01/19 10:17:14;;;;;;;8.45;6.00;;;17.20;45.30;;;;;;5113720;27;20079;-67
2022/01/19 10:19:45;;;;;;;8.13;5.65;;;17.20;45.50;;;;;;5115405;27;20119;-68
2022/01/19 10:22:20;;;;;;;7.60;5.45;;;17.20;45.60;;;;;;5133822;27;20441;-71
2022/01/19 10:43:46;;;;;;;5.40;4.10;;;17.20;45.70;;;;;;5105290;27;20507;-74
2022/01/19 10:46:29;;;;;;;5.63;4.95;;;17.00;47.00;;;;;;5112056;27;20047;-70
2022/01/19 10:48:59;;;;;;;9.07;4.63;;;17.00;47.10;;;;;;5106204;27;20047;-68
2022/01/19 10:51:31;;;;;;;8.40;5.22;;;17.00;47.30;;;;;;5111122;27;20180;-67
2022/01/19 10:56:58;;;;;;;8.38;4.45;;;17.00;47.50;;;;;;5122318;27;20331;-67
2022/01/19 10:59:28;;;;;;;5.88;5.20;;;17.00;47.90;;;;;;5102120;28;20048;-68
2022/01/19 11:01:57;;;;;;;6.77;5.03;;;17.00;48.20;;;;;;5101439;28;20531;-70
2022/01/19 11:07:22;;;;;;;6.35;5.05;;;17.00;48.20;;;;;;5065910;27;20383;-72
2022/01/19 11:10:21;;;;;;;8.68;6.15;;;17.00;48.70;;;;;;5067084;28;20044;-72
2022/01/19 11:12:39;;;;;;;9.10;6.43;;;17.00;48.60;;;;;;5053448;28;20037;-68
2022/01/19 11:15:07;;;;;;;9.20;5.60;;;17.00;48.80;;;;;;5048609;28;20045;-70
2022/01/19 11:17:33;;;;;;;9.50;5.82;;;16.90;48.90;;;;;;5068829;28;20057;-68
2022/01/19 11:20:05;;;;;;;9.55;6.40;;;17.00;48.90;;;;;;5052859;28;20033;-73
2022/01/19 11:23:13;;;;;;;8.43;6.32;;;17.00;49.00;;;;;;5050102;28;20039;-73
2022/01/19 11:28:34;;;;;;;8.95;5.47;;;17.00;50.10;;;;;;5101271;27;20879;-68
2022/01/19 11:31:04;;;;;;;7.00;5.95;;;17.00;49.30;;;;;;5093608;28;20050;-67
2022/01/19 11:33:31;;;;;;;8.18;6.13;;;17.00;49.30;;;;;;5086614;28;20690;-68
2022/01/19 11:36:04;;;;;;;11.95;7.82;;;17.00;49.20;;;;;;5090285;28;20033;-67
2022/01/19 11:43:54;;;;;;;20.88;14.65;;;17.00;49.20;;;;;;5109444;27;1166941;-68
2022/01/19 11:49:14;;;;;;;23.83;16.50;;;17.00;48.00;;;;;;5073782;27;20421;-72
2022/01/19 11:51:43;;;;;;;20.00;14.98;;;17.00;47.60;;;;;;5068740;28;20071;-68
2022/01/19 11:54:28;;;;;;;17.20;13.93;;;16.90;47.40;;;;;;5070347;28;20539;-70
2022/01/19 12:07:55;;;;;;;19.40;11.60;;;16.90;47.50;;;;;;5069815;27;20395;-65
2022/01/19 12:13:29;;;;;;;15.90;10.70;;;17.00;47.90;;;;;;5120836;27;20411;-70
2022/01/19 12:21:38;;;;;;;14.50;10.45;;;17.00;48.10;;;;;;5123404;27;20345;-69
2022/01/19 12:29:46;;;;;;;11.60;10.15;;;17.00;48.10;;;;;;5126809;27;20937;-70
2022/01/19 12:37:53;;;;;;;12.48;10.13;;;17.00;47.90;;;;;;5084736;27;20924;-70
2022/01/19 12:43:05;;;;;;;9.18;8.23;;;16.90;47.90;;;;;;5126020;27;20358;-71
2022/01/19 12:45:43;;;;;;;10.65;9.48;;;16.90;47.90;;;;;;5111464;28;20039;-71
2022/01/19 12:48:09;;;;;;;13.10;7.93;;;16.90;48.10;;;;;;5111709;28;20039;-69
2022/01/19 12:50:37;;;;;;;9.70;8.70;;;16.90;48.20;;;;;;5105526;28;20481;-70
2022/01/19 12:53:22;;;;;;;11.02;9.43;;;16.90;48.40;;;;;;5124433;27;20054;-67
2022/01/19 12:55:51;;;;;;;9.68;8.57;;;16.90;48.70;;;;;;5114152;28;20044;-68
2022/01/19 12:58:21;;;;;;;10.25;8.73;;;16.90;48.80;;;;;;5113192;28;20051;-70
2022/01/19 13:00:50;;;;;;;11.73;9.40;;;16.80;48.90;;;;;;5115679;28;20414;-65
2022/01/19 13:03:20;;;;;;;9.32;8.23;;;16.90;49.10;;;;;;5113318;28;20055;-63
2022/01/19 13:05:49;;;;;;;9.52;8.55;;;16.90;49.20;;;;;;5111100;28;20047;-64
2022/01/19 13:08:24;;;;;;;10.15;8.80;;;16.90;49.40;;;;;;5110239;28;20089;-64
2022/01/19 13:10:55;;;;;;;10.25;9.20;;;16.90;49.40;;;;;;5104945;28;20122;-64
2022/01/19 13:16:00;;;;;;;13.50;9.98;;;16.90;50.50;;;;;;5140085;27;1160734;-65
2022/01/19 13:24:13;;;;;;;9.80;8.60;;;16.90;49.40;;;;;;5150618;27;1158042;-66
2022/01/19 13:26:42;;;;;;;9.80;8.80;;;16.90;49.20;;;;;;5150572;27;20048;-66
2022/01/19 13:32:07;;;;;;;9.30;8.10;;;16.90;49.00;;;;;;5144321;27;1161473;-67
2022/01/19 13:34:49;;;;;;;9.70;8.27;;;16.80;49.00;;;;;;5141586;27;20046;-67
2022/01/19 13:37:15;;;;;;;9.15;7.93;;;16.80;49.20;;;;;;5128683;27;20650;-68
2022/01/19 13:39:41;;;;;;;10.98;7.78;;;16.80;49.20;;;;;;5128958;27;20499;-68
2022/01/19 13:42:07;;;;;;;9.77;8.77;;;16.80;49.20;;;;;;5129257;27;20052;-67
2022/01/19 13:44:36;;;;;;;9.43;8.20;;;16.80;49.20;;;;;;5145720;27;20030;-67
2022/01/19 13:47:09;;;;;;;11.45;8.07;;;16.80;49.20;;;;;;5150977;27;20074;-67
2022/01/19 13:49:35;;;;;;;10.57;7.97;;;16.80;49.30;;;;;;5169152;27;20435;-68
2022/01/19 13:52:05;;;;;;;10.20;7.90;;;16.80;49.20;;;;;;5133618;27;20042;-68
2022/01/19 13:54:37;;;;;;;9.43;8.43;;;16.80;49.30;;;;;;5135279;27;20409;-69
2022/01/19 13:57:03;;;;;;;8.65;7.28;;;16.80;49.50;;;;;;5147924;27;20078;-70
2022/01/19 13:59:29;;;;;;;8.73;7.78;;;16.70;49.40;;;;;;5162708;27;20034;-72
2022/01/19 14:02:00;;;;;;;11.10;7.75;;;16.70;49.50;;;;;;5143735;27;20039;-66
2022/01/19 14:04:29;;;;;;;8.35;7.55;;;16.70;49.70;;;;;;5146211;27;20658;-69
2022/01/19 14:07:04;;;;;;;10.63;7.70;;;16.70;49.80;;;;;;5148353;27;20039;-71
2022/01/19 14:09:31;;;;;;;10.80;8.05;;;16.70;50.00;;;;;;5133377;27;20039;-71
2022/01/19 14:12:00;;;;;;;8.77;7.63;;;16.70;50.20;;;;;;5165241;27;20045;-70
2022/01/19 14:14:32;;;;;;;8.55;7.70;;;16.70;50.40;;;;;;5149739;27;20038;-65
2022/01/19 14:16:58;;;;;;;9.35;6.57;;;16.70;50.50;;;;;;5144607;27;20041;-66
2022/01/19 14:19:30;;;;;;;9.30;7.57;;;16.60;50.30;;;;;;5166635;27;20576;-66
2022/01/19 14:32:57;;;;;;;11.57;8.35;;;16.60;50.40;;;;;;5128956;27;21023;-65
2022/01/19 14:43:59;;;;;;;10.90;8.32;;;16.50;50.50;;;;;;5127232;27;20383;-66
2022/01/19 14:47:05;;;;;;;10.32;9.10;;;16.50;51.30;;;;;;5126721;28;20123;-66
2022/01/19 14:49:36;;;;;;;9.15;7.72;;;16.50;50.80;;;;;;5129038;27;20049;-66
2022/01/19 14:52:04;;;;;;;10.27;8.45;;;16.40;50.70;;;;;;5126905;28;20476;-66
2022/01/19 14:54:29;;;;;;;12.07;8.30;;;16.40;50.80;;;;;;5127324;28;20035;-66
2022/01/19 14:56:55;;;;;;;10.30;8.43;;;16.40;50.80;;;;;;5128090;28;20411;-66
2022/01/19 14:59:22;;;;;;;9.93;7.55;;;16.40;50.70;;;;;;5128274;28;20050;-66
2022/01/19 15:01:53;;;;;;;11.18;8.35;;;16.40;50.70;;;;;;5127892;28;20049;-66
2022/01/19 15:04:20;;;;;;;8.93;7.97;;;16.30;50.60;;;;;;5128062;28;20042;-66
2022/01/19 15:06:47;;;;;;;8.98;8.02;;;16.30;50.60;;;;;;5127830;28;20035;-66
2022/01/19 15:09:13;;;;;;;13.45;8.32;;;16.30;50.60;;;;;;5129426;27;20405;-66
2022/01/19 15:11:41;;;;;;;8.57;7.50;;;16.20;50.60;;;;;;5127907;28;20039;-66
2022/01/19 15:14:09;;;;;;;8.48;7.57;;;16.20;50.50;;;;;;5128171;28;20078;-69
2022/01/19 15:16:35;;;;;;;8.98;7.15;;;16.20;50.60;;;;;;5127801;28;20478;-69
2022/01/19 15:19:02;;;;;;;9.50;8.20;;;16.20;50.50;;;;;;5128727;27;20071;-66
2022/01/19 15:21:27;;;;;;;8.10;7.25;;;16.20;50.50;;;;;;5127406;28;20379;-67
2022/01/19 15:23:53;;;;;;;9.85;7.95;;;16.20;50.50;;;;;;5126966;28;20046;-66
2022/01/19 15:26:19;;;;;;;10.55;7.97;;;16.10;50.50;;;;;;5127488;28;20073;-67
2022/01/19 15:28:46;;;;;;;8.90;8.10;;;16.10;50.50;;;;;;5128943;27;20032;-66
2022/01/19 15:31:13;;;;;;;8.95;8.05;;;16.10;50.60;;;;;;5127593;28;20143;-66
2022/01/19 15:33:40;;;;;;;8.43;7.47;;;16.10;50.50;;;;;;5128483;27;20039;-66
2022/01/19 15:36:07;;;;;;;8.82;7.15;;;16.10;50.60;;;;;;5127036;28;20058;-70
2022/01/19 15:38:38;;;;;;;10.60;7.13;;;16.00;50.50;;;;;;5126783;28;20043;-66
2022/01/19 15:41:04;;;;;;;8.80;7.15;;;16.10;50.60;;;;;;5126679;28;20445;-66
2022/01/19 15:43:30;;;;;;;10.50;6.95;;;16.00;50.60;;;;;;5126546;28;20039;-67
2022/01/19 15:45:59;;;;;;;9.57;6.70;;;16.00;50.60;;;;;;5126729;28;20057;-67
2022/01/19 15:48:26;;;;;;;9.20;6.80;;;15.90;50.60;;;;;;5128876;27;20116;-66
2022/01/19 15:50:54;;;;;;;8.82;6.43;;;15.90;50.60;;;;;;5129025;27;20039;-66
2022/01/19 15:53:22;;;;;;;7.65;6.82;;;15.90;50.60;;;;;;5124385;28;20096;-66
2022/01/19 15:55:50;;;;;;;9.93;6.78;;;15.90;50.70;;;;;;5114248;28;20475;-66
2022/01/19 15:58:19;;;;;;;7.05;6.35;;;15.90;50.70;;;;;;5113353;28;20054;-66
2022/01/19 16:00:49;;;;;;;7.63;6.35;;;15.90;50.70;;;;;;5114995;28;20081;-67
2022/01/19 16:03:16;;;;;;;7.72;6.50;;;15.80;50.70;;;;;;5113633;28;20048;-66
2022/01/19 16:05:41;;;;;;;6.72;6.13;;;15.80;50.70;;;;;;5114748;28;20039;-67
2022/01/19 16:08:08;;;;;;;7.45;6.25;;;15.80;50.70;;;;;;5113004;28;20108;-67